WetterOnline ( http://www.wetteronline.de )

Wetter aktuell Herdecke

Aktuelles Wetter: Lüdenscheid (392m)

6-stündlich | Neueste Meldungen
Ortszeit Temperatur Wetter
Mi, 25.04. 20:00 9.8° C bewölkt
Mi, 25.04. 14:00 12.4° C bedeckt
Mi, 25.04. 8:00 11.8° C bewölkt
Mi, 25.04. 2:00 12.5° C bedeckt
Di, 24.04. 20:00 12.9° C bewölkt
Di, 24.04. 14:00 12.3° C bewölkt
Di, 24.04. 8:00 7.2° C wolkig
Di, 24.04. 2:00 7.8° C wolkenlos
Ortszeit Temperatur Wetter
Do, 26.04. 1:30 6.7° C wolkenlos
Do, 26.04. 1:20 6.7° C wolkenlos
Do, 26.04. 1:10 6.9° C fast wolkenlos
Do, 26.04. 1:00 7.2° C wolkig
Do, 26.04. 0:50 7.2° C wolkig
Do, 26.04. 0:40 7.3° C bedeckt
Do, 26.04. 0:30 7.5° C bedeckt
Do, 26.04. 0:00 7.5° C bewölkt
Mi, 25.04. 23:30 7.8° C bewölkt
Mi, 25.04. 23:00 7.0° C leicht bewölkt
Mi, 25.04. 22:30 7.4° C bewölkt
Ortszeit Relative Feuchte Sichtweite
Mi, 25.04. 20:00 69% 27 km
Mi, 25.04. 14:00 65% 19 km
Mi, 25.04. 8:00 80% 16 km
Mi, 25.04. 2:00 79% 17 km
Di, 24.04. 20:00 77% 15 km
Di, 24.04. 14:00 76% 30 km
Di, 24.04. 8:00 84% 28 km
Di, 24.04. 2:00 85% 15 km
Ortszeit Relative Feuchte Sichtweite
Do, 26.04. 1:30 76% 50 km
Do, 26.04. 1:20 76% -
Do, 26.04. 1:10 77% -
Do, 26.04. 1:00 80% 40 km
Do, 26.04. 0:50 80% -
Do, 26.04. 0:40 82% -
Do, 26.04. 0:30 82% 24 km
Do, 26.04. 0:00 83% 21 km
Mi, 25.04. 23:30 84% 15 km
Mi, 25.04. 23:00 86% 13 km
Mi, 25.04. 22:30 85% 14 km
Ortszeit Niederschlagsmenge Niederschlagsart
Mi, 25.04. 20:00 4 l/m2 in 12 Std. Regen
Mi, 25.04. 14:00 4 l/m2 in 6 Std. Regen
Mi, 25.04. 8:00 0.1 l/m2 in 12 Std. Regen
Mi, 25.04. 2:00 0.1 l/m2 in 6 Std. Regen
Di, 24.04. 20:00 0.2 l/m2 in 12 Std. -
Di, 24.04. 14:00 0.2 l/m2 in 6 Std. Regen
Di, 24.04. 8:00 0.0 l/m2 in 12 Std. -
Di, 24.04. 2:00 0.0 l/m2 in 6 Std. -
Ortszeit Niederschlagsmenge Niederschlagsart
Do, 26.04. 1:30 0.0 l/m2 in 1 Std. -
Do, 26.04. 1:20 keine Meldung -
Do, 26.04. 1:10 keine Meldung -
Do, 26.04. 1:00 0.0 l/m2 in 1 Std. -
Do, 26.04. 0:50 keine Meldung -
Do, 26.04. 0:40 keine Meldung -
Do, 26.04. 0:30 0.0 l/m2 in 1 Std. -
Do, 26.04. 0:00 0.0 l/m2 in 1 Std. -
Mi, 25.04. 23:30 0.0 l/m2 in 1 Std. -
Mi, 25.04. 23:00 0.1 l/m2 in 1 Std. Regen
Mi, 25.04. 22:30 0.1 l/m2 in 1 Std. Schneeregen
Ortszeit Stärke Spitze Richtung
km/h Bft. km/h Grad Sektor
Mi, 25.04. 20:00 15 3 48 300° NW
Mi, 25.04. 14:00 32 5 54 270° W
Mi, 25.04. 8:00 24 4 39 250° W
Mi, 25.04. 2:00 14 3 25 230° SW
Di, 24.04. 20:00 11 2 40 250° W
Di, 24.04. 14:00 25 4 43 240° SW
Di, 24.04. 8:00 15 3 39 250° W
Di, 24.04. 2:00 11 2 18 260° W
Ortszeit Stärke Spitze Richtung
km/h Bft. km/h Grad Sektor
Do, 26.04. 1:30 20 4 35 250° W
Do, 26.04. 1:20 20 4 - 250° W
Do, 26.04. 1:10 19 3 - 250° W
Do, 26.04. 1:00 14 3 29 250° W
Do, 26.04. 0:50 14 3 - 250° W
Do, 26.04. 0:40 13 3 - 250° W
Do, 26.04. 0:30 11 2 18 250° W
Do, 26.04. 0:00 11 2 22 250° W
Mi, 25.04. 23:30 9 2 19 240° SW
Mi, 25.04. 23:00 6 1 19 240° SW
Mi, 25.04. 22:30 7 2 18 250° W
Ortszeit Untergrenze Bedeckung Gattung
total tief tief mittel hoch
Mi, 25.04. 20:00 1080 m 7/8 7/8 - - -
Mi, 25.04. 14:00 750 m 8/8 8/8 - - -
Mi, 25.04. 8:00 510 m 7/8 7/8 - - -
Mi, 25.04. 2:00 1290 m 8/8 8/8 - - -
Di, 24.04. 20:00 2100 m 8/8 5/8 - - -
Di, 24.04. 14:00 420 m 8/8 6/8 - - -
Di, 24.04. 8:00 390 m 8/8 3/8 - - -
Di, 24.04. 2:00 - 0/8 0/8 - - -
Ortszeit Bedeckungsgrad in Achtel und Wolkenuntergrenze
Do, 26.04. 1:30 keine Wolken
Do, 26.04. 1:20 keine Wolken
Do, 26.04. 1:10 1(1230m)
Do, 26.04. 1:00 1(720m) 4(1170m) 6(1800m)
Do, 26.04. 0:50 1(720m) 4(1170m) 6(1800m)
Do, 26.04. 0:40 2(750m) 7(1140m) 8(1500m)
Do, 26.04. 0:30 3(720m) 7(1080m) 8(1500m)
Do, 26.04. 0:00 3(1020m) 6(1260m) 7(2100m)
Mi, 25.04. 23:30 7(1230m) 7(1500m) 8(2100m)
Mi, 25.04. 23:00 2(1320m) 4(2400m)
Mi, 25.04. 22:30 4(1320m) 4(1800m) 7(2400m)
Ortszeit Luftdruck NN (hPa) Tendenz (hPa in 3 Std.)
Mi, 25.04. 20:00 1012 + 0,1
Mi, 25.04. 14:00 1011 + 1,1
Mi, 25.04. 8:00 1008 - 0,3
Mi, 25.04. 2:00 1010 - 2,2
Di, 24.04. 20:00 1014 - 1,3
Di, 24.04. 14:00 1016 - 0,4
Di, 24.04. 8:00 1018 + 0,4
Di, 24.04. 2:00 1018 + 0,4
Ortszeit Luftdruck NN (hPa) Tendenz (hPa in 3 Std.)
Do, 26.04. 1:30 1014 + 0,5
Do, 26.04. 1:20 1014 keine Meldung
Do, 26.04. 1:10 1014 keine Meldung
Do, 26.04. 1:00 1014 + 0,4
Do, 26.04. 0:50 1014 keine Meldung
Do, 26.04. 0:40 1014 keine Meldung
Do, 26.04. 0:30 1014 + 0,6
Do, 26.04. 0:00 1014 + 0,8
Mi, 25.04. 23:30 1013 + 0,7
Mi, 25.04. 23:00 1014 + 0,7
Mi, 25.04. 22:30 1014 + 1,0
Ortszeit Schneehöhe (cm)
Mi, 25.04. 20:00 0
Mi, 25.04. 14:00 0
Mi, 25.04. 8:00 0
Mi, 25.04. 2:00 0
Di, 24.04. 20:00 0
Di, 24.04. 14:00 0
Di, 24.04. 8:00 0
Di, 24.04. 2:00 0
Ortszeit Schneehöhe (cm)
Do, 26.04. 1:30 0
Do, 26.04. 1:20 0
Do, 26.04. 1:10 0
Do, 26.04. 1:00 0
Do, 26.04. 0:50 0
Do, 26.04. 0:40 0
Do, 26.04. 0:30 0
Do, 26.04. 0:00 0
Mi, 25.04. 23:30 0
Mi, 25.04. 23:00 0
Mi, 25.04. 22:30 0
Link zu dieser Seite / Seite empfehlen

Das Wetter in ...